createdAt,value
2018-09-04T00:00:04.269Z,99.99
2018-09-04T00:01:04.690Z,99.99
2018-09-04T00:02:04.222Z,99.99
2018-09-04T00:03:05.141Z,99.99
2018-09-04T00:04:04.698Z,99.99
2018-09-04T00:05:04.148Z,99.99
2018-09-04T00:06:04.640Z,99.99
2018-09-04T00:07:04.642Z,99.99
2018-09-04T00:08:04.674Z,99.99
2018-09-04T00:09:04.198Z,99.99
2018-09-04T00:10:04.026Z,99.99
2018-09-04T00:11:04.643Z,99.99
2018-09-04T00:12:04.646Z,99.99
2018-09-04T00:13:03.956Z,99.99
2018-09-04T00:14:03.981Z,99.99
2018-09-04T00:15:03.950Z,99.99
2018-09-04T00:16:04.649Z,99.99
2018-09-04T00:17:03.856Z,99.99
2018-09-04T00:18:04.645Z,99.99
2018-09-04T00:19:03.809Z,99.99
2018-09-04T00:20:03.829Z,99.99
2018-09-04T00:21:04.650Z,99.99
2018-09-04T00:22:03.739Z,99.99
2018-09-04T00:23:03.711Z,99.99
2018-09-04T00:24:03.690Z,99.99
2018-09-04T00:25:03.709Z,99.99
2018-09-04T00:26:04.147Z,99.99
2018-09-04T00:27:04.173Z,99.99
2018-09-04T00:28:03.588Z,99.99
2018-09-04T00:29:04.148Z,99.99
2018-09-04T00:30:03.581Z,99.99
2018-09-04T00:31:04.152Z,99.99
2018-09-04T00:32:04.149Z,99.99
2018-09-04T00:33:04.151Z,99.99
2018-09-04T00:34:03.447Z,99.99
2018-09-04T00:35:03.719Z,99.99
2018-09-04T00:36:04.149Z,99.99
2018-09-04T00:37:03.367Z,99.99
2018-09-04T00:38:03.347Z,99.99
2018-09-04T00:39:03.702Z,99.99
2018-09-04T00:40:03.706Z,99.99
2018-09-04T00:41:04.160Z,99.99
2018-09-04T00:42:04.156Z,99.99
2018-09-04T00:43:04.153Z,99.99
2018-09-04T00:44:03.242Z,99.99
2018-09-04T00:45:03.174Z,99.99
2018-09-04T00:46:03.651Z,99.99
2018-09-04T00:47:03.654Z,99.99
2018-09-04T00:48:03.097Z,99.99
2018-09-04T00:49:03.126Z,99.99
2018-09-04T00:50:03.055Z,99.99
2018-09-04T00:51:03.659Z,99.99
2018-09-04T00:52:03.008Z,99.99
2018-09-04T00:53:03.654Z,99.99
2018-09-04T00:54:03.010Z,99.99
2018-09-04T00:55:02.929Z,99.99
2018-09-04T00:56:02.899Z,99.99
2018-09-04T00:57:03.656Z,99.99
2018-09-04T00:58:02.854Z,99.99
2018-09-04T00:59:03.272Z,99.99
2018-09-04T01:00:03.662Z,99.99
2018-09-04T01:01:03.656Z,99.99
2018-09-04T01:02:02.761Z,99.99
2018-09-04T01:03:03.658Z,99.99
2018-09-04T01:04:03.209Z,99.99
2018-09-04T01:05:03.210Z,99.99
2018-09-04T01:06:02.659Z,99.99
2018-09-04T01:07:02.641Z,99.99
2018-09-04T01:08:02.608Z,99.99
2018-09-04T01:09:02.581Z,99.99
2018-09-04T01:10:02.717Z,99.99
2018-09-04T01:11:02.555Z,99.99
2018-09-04T01:12:02.526Z,99.99
2018-09-04T01:13:02.484Z,99.99
2018-09-04T01:14:02.715Z,99.99
2018-09-04T01:15:02.434Z,99.99
2018-09-04T01:16:03.162Z,99.99
2018-09-04T01:17:02.383Z,99.99
2018-09-04T01:18:02.359Z,99.99
2018-09-04T01:19:02.375Z,99.99
2018-09-04T01:20:03.162Z,99.99
2018-09-04T01:21:02.714Z,99.99
2018-09-04T01:22:03.160Z,99.99
2018-09-04T01:23:02.241Z,99.99
2018-09-04T01:24:02.210Z,99.99
2018-09-04T01:25:02.191Z,99.99
2018-09-04T01:26:02.207Z,99.99
2018-09-04T01:27:02.141Z,99.99
2018-09-04T01:28:02.119Z,99.99
2018-09-04T01:29:02.088Z,99.99
2018-09-04T01:30:02.105Z,99.99
2018-09-04T01:31:02.082Z,99.99
2018-09-04T01:32:02.016Z,99.99
2018-09-04T01:33:02.662Z,99.99
2018-09-04T01:34:01.968Z,99.99
2018-09-04T01:35:02.669Z,99.99
2018-09-04T01:36:02.217Z,99.99
2018-09-04T01:37:02.665Z,99.99
2018-09-04T01:38:01.880Z,99.99
2018-09-04T01:39:02.665Z,99.99
2018-09-04T01:40:01.859Z,99.99
2018-09-04T01:41:01.794Z,99.99
2018-09-04T01:42:01.764Z,99.99
2018-09-04T01:43:01.796Z,99.99
2018-09-04T01:44:02.677Z,99.99
2018-09-04T01:45:02.236Z,99.99
2018-09-04T01:46:02.171Z,99.99
2018-09-04T01:47:02.164Z,99.99
2018-09-04T01:48:02.169Z,99.99
2018-09-04T01:49:02.172Z,99.99
2018-09-04T01:50:01.722Z,99.99
2018-09-04T01:51:01.543Z,99.99
2018-09-04T01:52:02.175Z,99.99
2018-09-04T01:53:02.173Z,99.99
2018-09-04T01:54:01.723Z,99.99
2018-09-04T01:55:02.171Z,99.99
2018-09-04T01:56:02.170Z,99.99
2018-09-04T01:57:01.395Z,99.99
2018-09-04T01:58:01.742Z,99.99
2018-09-04T01:59:02.167Z,99.99
2018-09-04T02:00:01.315Z,99.99
2018-09-04T02:01:01.289Z,99.99
2018-09-04T02:02:02.188Z,99.99
2018-09-04T02:03:01.724Z,99.99
2018-09-04T02:04:01.218Z,99.99
2018-09-04T02:05:02.171Z,99.99
2018-09-04T02:06:01.233Z,99.99
2018-09-04T02:07:01.671Z,99.99
2018-09-04T02:08:01.670Z,99.99
2018-09-04T02:09:01.118Z,99.99
2018-09-04T02:10:01.681Z,99.99
2018-09-04T02:11:01.724Z,99.99
2018-09-04T02:12:01.707Z,99.99
2018-09-04T02:13:01.679Z,99.99
2018-09-04T02:14:01.233Z,99.99
2018-09-04T02:15:00.940Z,99.99
2018-09-04T02:16:01.675Z,99.99
2018-09-04T02:17:00.886Z,99.99
2018-09-04T02:18:01.675Z,99.99
2018-09-04T02:19:00.897Z,99.99
2018-09-04T02:20:00.828Z,99.99
2018-09-04T02:21:01.676Z,99.99
2018-09-04T02:22:01.685Z,99.99
2018-09-04T02:23:01.671Z,99.99
2018-09-04T02:24:01.229Z,99.99
2018-09-04T02:25:01.676Z,99.99
2018-09-04T02:26:00.730Z,99.99
2018-09-04T02:27:01.174Z,99.99
2018-09-04T02:28:01.176Z,99.99
2018-09-04T02:29:00.584Z,99.99
2018-09-04T02:30:00.728Z,99.99
2018-09-04T02:31:00.738Z,99.99
2018-09-04T02:32:00.509Z,99.99
2018-09-04T02:33:01.182Z,99.99
2018-09-04T02:34:01.178Z,99.99
2018-09-04T02:35:01.201Z,99.99
2018-09-04T02:36:01.234Z,99.99
2018-09-04T02:37:01.176Z,99.99
2018-09-04T02:38:00.372Z,99.99
2018-09-04T02:39:00.376Z,99.99
2018-09-04T02:40:01.182Z,99.99
2018-09-04T02:41:00.285Z,99.99
2018-09-04T02:42:01.194Z,99.99
2018-09-04T02:43:00.735Z,99.99
2018-09-04T02:44:00.209Z,99.99
2018-09-04T02:45:00.680Z,99.99
2018-09-04T02:46:00.229Z,99.99
2018-09-04T02:47:00.133Z,99.99
2018-09-04T02:48:00.683Z,99.99
2018-09-04T02:49:00.232Z,99.99
2018-09-04T02:50:00.588Z,99.99
2018-09-04T02:51:00.679Z,99.99
2018-09-04T02:52:00.004Z,99.99
2018-09-04T02:52:59.976Z,99.99
2018-09-04T02:54:00.007Z,99.99
2018-09-04T02:54:59.926Z,99.99
2018-09-04T02:56:00.682Z,99.99
2018-09-04T02:56:59.880Z,99.99
2018-09-04T02:58:00.682Z,99.99
2018-09-04T02:59:00.243Z,99.99
2018-09-04T02:59:59.800Z,99.99
2018-09-04T03:00:59.779Z,99.99
2018-09-04T03:01:59.751Z,99.99
2018-09-04T03:03:00.232Z,99.99
2018-09-04T03:04:00.682Z,99.99
2018-09-04T03:04:59.719Z,99.99
2018-09-04T03:06:00.184Z,99.99
2018-09-04T03:07:00.185Z,99.99
2018-09-04T03:07:59.597Z,99.99
2018-09-04T03:08:59.573Z,99.99
2018-09-04T03:09:59.738Z,99.99
2018-09-04T03:11:00.183Z,99.99
2018-09-04T03:12:00.187Z,99.99
2018-09-04T03:13:00.189Z,99.99
2018-09-04T03:13:59.520Z,99.99
2018-09-04T03:14:59.736Z,99.99
2018-09-04T03:16:00.184Z,99.99
2018-09-04T03:17:00.184Z,99.99
2018-09-04T03:17:59.343Z,99.99
2018-09-04T03:19:00.186Z,99.99
2018-09-04T03:19:59.338Z,99.99
2018-09-04T03:21:00.187Z,99.99
2018-09-04T03:22:00.188Z,99.99
2018-09-04T03:23:00.228Z,99.99
2018-09-04T03:23:59.192Z,99.99
2018-09-04T03:24:59.250Z,99.99
2018-09-04T03:25:59.693Z,99.99
2018-09-04T03:26:59.119Z,99.99
2018-09-04T03:27:59.712Z,99.99
2018-09-04T03:28:59.688Z,99.99
2018-09-04T03:29:59.261Z,99.99
2018-09-04T03:30:59.696Z,99.99
2018-09-04T03:31:59.690Z,99.99
2018-09-04T03:32:58.974Z,99.99
2018-09-04T03:33:58.946Z,99.99
2018-09-04T03:34:59.253Z,99.99
2018-09-04T03:35:58.901Z,99.99
2018-09-04T03:37:01.690Z,99.99
2018-09-04T03:37:58.854Z,99.99
2018-09-04T03:38:59.710Z,99.99
2018-09-04T03:39:59.259Z,99.99
2018-09-04T03:40:58.762Z,99.99
2018-09-04T03:41:58.743Z,99.99
2018-09-04T03:42:58.709Z,99.99
2018-09-04T03:43:59.192Z,99.99
2018-09-04T03:44:58.707Z,99.99
2018-09-04T03:45:58.755Z,99.99
2018-09-04T03:46:58.609Z,99.99
2018-09-04T03:47:58.585Z,99.99
2018-09-04T03:48:59.195Z,99.99
2018-09-04T03:49:58.534Z,99.99
2018-09-04T03:50:58.549Z,99.99
2018-09-04T03:51:58.517Z,99.99
2018-09-04T03:52:58.462Z,99.99
2018-09-04T03:53:58.429Z,99.99
2018-09-04T03:54:59.195Z,99.99
2018-09-04T03:55:59.200Z,99.99
2018-09-04T03:56:58.399Z,99.99
2018-09-04T03:57:58.327Z,99.99
2018-09-04T03:58:59.195Z,99.99
2018-09-04T03:59:58.276Z,99.99
2018-09-04T04:00:59.197Z,99.99
2018-09-04T04:01:58.750Z,99.99
2018-09-04T04:02:58.200Z,99.99
2018-09-04T04:03:58.176Z,99.99
2018-09-04T04:04:58.697Z,99.99
2018-09-04T04:05:58.696Z,99.99
2018-09-04T04:06:58.173Z,99.99
2018-09-04T04:07:58.081Z,99.99
2018-09-04T04:08:58.051Z,99.99
2018-09-04T04:09:58.702Z,99.99
2018-09-04T04:10:58.699Z,99.99
2018-09-04T04:11:58.353Z,99.99
2018-09-04T04:12:57.947Z,99.99
2018-09-04T04:13:57.919Z,99.99
2018-09-04T04:14:57.902Z,99.99
2018-09-04T04:15:57.866Z,99.99
2018-09-04T04:16:57.884Z,99.99
2018-09-04T04:17:57.857Z,99.99
2018-09-04T04:18:57.793Z,99.99
2018-09-04T04:19:57.766Z,99.99
2018-09-04T04:20:57.740Z,99.99
2018-09-04T04:21:57.718Z,99.99
2018-09-04T04:22:57.733Z,99.99
2018-09-04T04:23:57.734Z,99.99
2018-09-04T04:24:57.636Z,99.99
2018-09-04T04:25:57.618Z,99.99
2018-09-04T04:26:57.591Z,99.99
2018-09-04T04:27:57.606Z,99.99
2018-09-04T04:28:58.204Z,99.99
2018-09-04T04:29:57.509Z,99.99
2018-09-04T04:30:57.500Z,99.99
2018-09-04T04:31:57.457Z,99.99
2018-09-04T04:32:57.560Z,99.99
2018-09-04T04:33:57.406Z,99.99
2018-09-04T04:34:57.396Z,99.99
2018-09-04T04:35:57.358Z,99.99
2018-09-04T04:36:57.332Z,99.99
2018-09-04T04:37:57.352Z,99.99
2018-09-04T04:38:57.763Z,99.99
2018-09-04T04:39:57.284Z,99.99
2018-09-04T04:40:57.231Z,99.99
2018-09-04T04:41:57.201Z,99.99
2018-09-04T04:42:57.179Z,99.99
2018-09-04T04:43:57.241Z,99.99
2018-09-04T04:44:57.149Z,99.99
2018-09-04T04:45:57.100Z,99.99
2018-09-04T04:46:57.080Z,99.99
2018-09-04T04:47:57.193Z,99.99
2018-09-04T04:48:57.077Z,99.99
2018-09-04T04:49:57.001Z,99.99
2018-09-04T04:50:56.977Z,99.99
2018-09-04T04:51:56.966Z,99.99
2018-09-04T04:52:56.929Z,99.99
2018-09-04T04:53:56.952Z,99.99
2018-09-04T04:54:57.615Z,99.99
2018-09-04T04:55:56.848Z,99.99
2018-09-04T04:56:56.821Z,99.99
2018-09-04T04:57:56.803Z,99.99
2018-09-04T04:58:57.260Z,99.99
2018-09-04T04:59:56.746Z,99.99
2018-09-04T05:00:56.717Z,99.99
2018-09-04T05:01:56.694Z,99.99
2018-09-04T05:02:56.667Z,99.99
2018-09-04T05:03:56.682Z,99.99
2018-09-04T05:04:56.621Z,99.99
2018-09-04T05:05:56.590Z,99.99
2018-09-04T05:06:57.208Z,99.99
2018-09-04T05:07:56.580Z,99.99
2018-09-04T05:08:56.516Z,99.99
2018-09-04T05:09:56.543Z,99.99
2018-09-04T05:10:56.514Z,99.99
2018-09-04T05:11:56.442Z,99.99
2018-09-04T05:12:56.468Z,99.99
2018-09-04T05:13:56.396Z,99.99
2018-09-04T05:14:56.365Z,99.99
2018-09-04T05:15:56.337Z,99.99
2018-09-04T05:16:56.317Z,99.99
2018-09-04T05:17:56.346Z,99.99
2018-09-04T05:18:56.264Z,99.99
2018-09-04T05:19:56.241Z,99.99
2018-09-04T05:20:56.214Z,99.99
2018-09-04T05:21:56.189Z,99.99
2018-09-04T05:22:56.220Z,99.99
2018-09-04T05:23:56.138Z,99.99
2018-09-04T05:24:56.125Z,99.99
2018-09-04T05:25:56.089Z,99.99
2018-09-04T05:26:56.066Z,99.99
2018-09-04T05:27:56.092Z,99.99
2018-09-04T05:28:56.039Z,99.99
2018-09-04T05:29:55.995Z,99.99
2018-09-04T05:30:56.716Z,99.99
2018-09-04T05:31:56.718Z,99.99
2018-09-04T05:32:55.972Z,99.99
2018-09-04T05:33:56.714Z,99.99
2018-09-04T05:34:55.864Z,99.99
2018-09-04T05:35:55.839Z,99.99
2018-09-04T05:36:56.719Z,99.99
2018-09-04T05:37:55.835Z,99.99
2018-09-04T05:38:55.811Z,99.99
2018-09-04T05:39:55.736Z,99.99
2018-09-04T05:40:55.708Z,99.99
2018-09-04T05:41:55.684Z,99.99
2018-09-04T05:42:56.216Z,99.99
2018-09-04T05:43:55.691Z,99.99
2018-09-04T05:44:55.611Z,99.99
2018-09-04T05:45:56.215Z,99.99
2018-09-04T05:46:55.560Z,99.99
2018-09-04T05:47:55.541Z,99.99
2018-09-04T05:48:55.767Z,99.99
2018-09-04T05:49:55.767Z,99.99
2018-09-04T05:50:56.222Z,99.99
2018-09-04T05:51:56.225Z,99.99
2018-09-04T05:52:55.410Z,99.99
2018-09-04T05:53:55.387Z,99.99
2018-09-04T05:54:55.410Z,99.99
2018-09-04T05:55:56.220Z,99.99
2018-09-04T05:56:55.358Z,99.99
2018-09-04T05:57:56.221Z,99.99
2018-09-04T05:58:55.267Z,99.99
2018-09-04T05:59:55.239Z,99.99
2018-09-04T06:00:55.213Z,99.99
2018-09-04T06:01:55.280Z,99.99
2018-09-04T06:02:55.164Z,99.99
2018-09-04T06:03:55.149Z,99.99
2018-09-04T06:04:55.114Z,99.99
2018-09-04T06:05:55.731Z,99.99
2018-09-04T06:06:55.117Z,99.99
2018-09-04T06:07:55.725Z,99.99
2018-09-04T06:08:55.063Z,99.99
2018-09-04T06:09:54.993Z,99.99
2018-09-04T06:10:54.968Z,99.99
2018-09-04T06:11:54.944Z,99.99
2018-09-04T06:12:54.917Z,99.99
2018-09-04T06:13:54.940Z,99.99
2018-09-04T06:14:54.876Z,99.99
2018-09-04T06:15:54.845Z,99.99
2018-09-04T06:16:54.817Z,99.99
2018-09-04T06:17:54.803Z,99.99
2018-09-04T06:18:54.815Z,99.99
2018-09-04T06:19:55.744Z,99.99
2018-09-04T06:20:54.725Z,99.99
2018-09-04T06:21:54.695Z,99.99
2018-09-04T06:22:54.674Z,99.99
2018-09-04T06:23:54.692Z,99.99
2018-09-04T06:24:54.624Z,99.99
2018-09-04T06:25:54.598Z,99.99
2018-09-04T06:26:54.575Z,99.99
2018-09-04T06:27:54.613Z,99.99
2018-09-04T06:28:54.569Z,99.99
2018-09-04T06:29:54.501Z,99.99
2018-09-04T06:30:54.474Z,99.99
2018-09-04T06:31:54.450Z,99.99
2018-09-04T06:32:54.470Z,99.99
2018-09-04T06:33:54.407Z,99.99
2018-09-04T06:34:54.379Z,99.99
2018-09-04T06:35:55.230Z,99.99
2018-09-04T06:36:54.373Z,99.99
2018-09-04T06:37:54.309Z,99.99
2018-09-04T06:38:54.329Z,99.99
2018-09-04T06:39:55.235Z,99.99
2018-09-04T06:40:54.287Z,99.99
2018-09-04T06:41:54.210Z,99.99
2018-09-04T06:42:54.216Z,99.99
2018-09-04T06:43:54.162Z,99.99
2018-09-04T06:44:54.132Z,99.99
2018-09-04T06:45:54.286Z,99.99
2018-09-04T06:46:54.089Z,99.99
2018-09-04T06:47:54.059Z,99.99
2018-09-04T06:48:54.036Z,99.99
2018-09-04T06:49:54.286Z,99.99
2018-09-04T06:50:53.989Z,99.99
2018-09-04T06:51:54.006Z,99.99
2018-09-04T06:52:53.944Z,99.99
2018-09-04T06:53:53.954Z,99.99
2018-09-04T06:54:53.898Z,99.99
2018-09-04T06:55:53.921Z,99.99
2018-09-04T06:56:53.852Z,99.99
2018-09-04T06:57:53.872Z,99.99
2018-09-04T06:58:53.841Z,99.99
2018-09-04T06:59:54.737Z,99.99
2018-09-04T07:00:53.750Z,99.99
2018-09-04T07:01:53.763Z,99.99
2018-09-04T07:02:53.702Z,99.99
2018-09-04T07:03:53.793Z,99.99
2018-09-04T07:04:53.654Z,99.99
2018-09-04T07:05:53.719Z,99.99
2018-09-04T07:06:53.610Z,99.99
2018-09-04T07:07:53.581Z,99.99
2018-09-04T07:08:53.558Z,99.99
2018-09-04T07:09:53.535Z,99.99
2018-09-04T07:10:53.566Z,99.99
2018-09-04T07:11:54.238Z,99.99
2018-09-04T07:12:53.467Z,99.99
2018-09-04T07:13:53.449Z,99.99
2018-09-04T07:14:54.268Z,99.99
2018-09-04T07:15:53.497Z,99.99
2018-09-04T07:16:53.384Z,99.99
2018-09-04T07:17:53.800Z,99.99
2018-09-04T07:18:53.321Z,99.99
2018-09-04T07:19:53.305Z,99.99
2018-09-04T07:20:53.275Z,99.99
2018-09-04T07:21:53.253Z,99.99
2018-09-04T07:22:53.282Z,99.99
2018-09-04T07:23:53.210Z,99.99
2018-09-04T07:24:53.197Z,99.99
2018-09-04T07:25:53.159Z,99.99
2018-09-04T07:26:53.141Z,99.99
2018-09-04T07:27:53.168Z,99.99
2018-09-04T07:28:53.089Z,99.99
2018-09-04T07:29:53.741Z,99.99
2018-09-04T07:30:53.048Z,99.99
2018-09-04T07:31:53.767Z,99.99
2018-09-04T07:32:53.045Z,99.99
2018-09-04T07:33:53.016Z,99.99
2018-09-04T07:34:52.955Z,99.99
2018-09-04T07:35:53.743Z,99.99
2018-09-04T07:36:52.906Z,99.99
2018-09-04T07:37:52.882Z,99.99
2018-09-04T07:38:52.905Z,99.99
2018-09-04T07:39:52.838Z,99.99
2018-09-04T07:40:52.815Z,99.99
2018-09-04T07:41:52.797Z,99.99
2018-09-04T07:42:52.773Z,99.99
2018-09-04T07:43:52.791Z,99.99
2018-09-04T07:44:52.743Z,99.99
2018-09-04T07:45:52.701Z,99.99
2018-09-04T07:46:52.681Z,99.88
2018-09-04T07:47:52.812Z,99.99
2018-09-04T07:48:52.635Z,99.49
2018-09-04T07:49:52.615Z,99.30
2018-09-04T07:50:52.590Z,99.40
2018-09-04T07:51:52.566Z,99.49
2018-09-04T07:52:52.580Z,99.21
2018-09-04T07:53:53.294Z,99.40
2018-09-04T07:54:52.496Z,98.82
2018-09-04T07:55:52.493Z,98.92
2018-09-04T07:56:53.268Z,98.24
2018-09-04T07:57:52.470Z,98.54
2018-09-04T07:58:52.809Z,98.24
2018-09-04T07:59:52.382Z,98.05
2018-09-04T08:00:52.402Z,97.86
2018-09-04T08:01:53.255Z,97.96
2018-09-04T08:02:52.315Z,97.38
2018-09-04T08:03:52.357Z,96.75
2018-09-04T08:04:53.254Z,97.14
2018-09-04T08:05:52.773Z,97.42
2018-09-04T08:06:52.226Z,96.27
2018-09-04T08:07:52.204Z,95.98
2018-09-04T08:08:52.226Z,96.27
2018-09-04T08:09:52.160Z,95.89
2018-09-04T08:10:52.180Z,96.08
2018-09-04T08:11:52.113Z,96.17
2018-09-04T08:12:52.092Z,95.36
2018-09-04T08:13:52.117Z,95.02
2018-09-04T08:14:52.765Z,95.55
2018-09-04T08:15:52.072Z,95.55
2018-09-04T08:16:52.007Z,95.07
2018-09-04T08:17:51.984Z,94.97
2018-09-04T08:18:52.716Z,94.87
2018-09-04T08:19:52.002Z,94.29
2018-09-04T08:20:51.968Z,94.87
2018-09-04T08:21:51.896Z,94.68
2018-09-04T08:22:52.762Z,94.97
2018-09-04T08:23:51.846Z,93.62
2018-09-04T08:24:51.869Z,93.14
2018-09-04T08:25:53.664Z,93.24
2018-09-04T08:26:51.826Z,93.96
2018-09-04T08:27:52.261Z,93.76
2018-09-04T08:28:51.787Z,93.86
2018-09-04T08:29:51.722Z,93.43
2018-09-04T08:30:51.698Z,93.19
2018-09-04T08:31:51.817Z,93.19
2018-09-04T08:32:52.342Z,92.71
2018-09-04T08:33:51.628Z,92.13
2018-09-04T08:34:51.619Z,91.45
2018-09-04T08:35:51.586Z,90.78
2018-09-04T08:36:51.823Z,91.26
2018-09-04T08:37:51.541Z,91.93
2018-09-04T08:38:51.520Z,91.83
2018-09-04T08:39:51.536Z,90.30
2018-09-04T08:40:52.264Z,89.81
2018-09-04T08:41:51.497Z,89.14
2018-09-04T08:42:51.434Z,88.85
2018-09-04T08:43:51.408Z,88.85
2018-09-04T08:44:51.393Z,88.95
2018-09-04T08:45:51.375Z,88.95
2018-09-04T08:46:51.834Z,88.37
2018-09-04T08:47:51.412Z,88.56
2018-09-04T08:48:51.301Z,87.98
2018-09-04T08:49:51.277Z,87.79
2018-09-04T08:50:51.256Z,87.79
2018-09-04T08:51:51.286Z,87.79
2018-09-04T08:52:51.208Z,87.79
2018-09-04T08:53:51.762Z,87.64
2018-09-04T08:54:51.768Z,87.45
2018-09-04T08:55:51.143Z,87.26
2018-09-04T08:56:51.419Z,87.74
2018-09-04T08:57:51.100Z,87.26
2018-09-04T08:58:51.081Z,87.26
2018-09-04T08:59:51.078Z,86.29
2018-09-04T09:00:51.035Z,86.00
2018-09-04T09:01:51.049Z,86.10
2018-09-04T09:02:51.766Z,86.48
2018-09-04T09:03:51.085Z,84.59
2018-09-04T09:04:50.950Z,85.37
2018-09-04T09:05:50.925Z,85.17
2018-09-04T09:06:50.908Z,84.65
2018-09-04T09:07:50.884Z,85.27
2018-09-04T09:08:50.925Z,85.94
2018-09-04T09:09:51.834Z,84.41
2018-09-04T09:10:50.822Z,84.01
2018-09-04T09:11:50.795Z,84.21
2018-09-04T09:12:50.820Z,83.63
2018-09-04T09:13:50.753Z,84.31
2018-09-04T09:14:50.733Z,84.11
2018-09-04T09:15:50.715Z,84.11
2018-09-04T09:16:50.762Z,83.44
2018-09-04T09:17:50.834Z,82.28
2018-09-04T09:18:50.648Z,82.76
2018-09-04T09:19:50.627Z,82.76
2018-09-04T09:20:50.611Z,82.81
2018-09-04T09:21:50.589Z,82.81
2018-09-04T09:22:50.611Z,82.23
2018-09-04T09:23:50.544Z,82.03
2018-09-04T09:24:50.570Z,81.93
2018-09-04T09:25:50.500Z,82.23
2018-09-04T09:26:50.497Z,81.55
2018-09-04T09:27:51.273Z,80.78
2018-09-04T09:28:50.480Z,80.58
2018-09-04T09:29:50.416Z,81.07
2018-09-04T09:30:50.396Z,80.87
2018-09-04T09:31:50.371Z,80.68
2018-09-04T09:32:51.284Z,80.78
2018-09-04T09:33:50.367Z,80.20
2018-09-04T09:34:50.312Z,79.08
2018-09-04T09:35:51.278Z,78.50
2018-09-04T09:36:50.419Z,78.21
2018-09-04T09:37:50.253Z,78.69
2018-09-04T09:38:50.285Z,78.69
2018-09-04T09:39:50.226Z,78.99
2018-09-04T09:40:50.186Z,78.99
2018-09-04T09:41:50.167Z,78.79
2018-09-04T09:42:50.147Z,78.11
2018-09-04T09:43:50.162Z,77.05
2018-09-04T09:44:50.102Z,77.34
2018-09-04T09:45:50.079Z,78.02
2018-09-04T09:46:50.066Z,77.73
2018-09-04T09:47:50.037Z,76.95
2018-09-04T09:48:50.086Z,76.67
2018-09-04T09:49:50.000Z,77.34
2018-09-04T09:50:50.044Z,76.95
2018-09-04T09:51:50.779Z,77.25
2018-09-04T09:52:49.969Z,77.38
2018-09-04T09:53:49.960Z,77.86
2018-09-04T09:54:49.914Z,77.48
2018-09-04T09:55:50.891Z,76.42
2018-09-04T09:56:49.864Z,76.42
2018-09-04T09:57:49.833Z,76.70
2018-09-04T09:58:49.877Z,75.74
2018-09-04T09:59:49.876Z,75.84
2018-09-04T10:00:49.777Z,76.42
2018-09-04T10:01:49.751Z,76.61
2018-09-04T10:02:49.728Z,75.84
2018-09-04T10:03:49.709Z,75.84
2018-09-04T10:04:49.730Z,75.54
2018-09-04T10:05:50.290Z,75.84
2018-09-04T10:06:49.656Z,76.61
2018-09-04T10:07:49.743Z,76.12
2018-09-04T10:08:49.637Z,76.51
2018-09-04T10:09:49.881Z,74.96
2018-09-04T10:10:49.610Z,74.81
2018-09-04T10:11:49.540Z,73.74
2018-09-04T10:12:49.523Z,71.81
2018-09-04T10:13:49.500Z,72.00
2018-09-04T10:14:50.302Z,72.20
2018-09-04T10:15:49.512Z,71.04
2018-09-04T10:16:49.440Z,71.14
2018-09-04T10:17:50.290Z,71.14
2018-09-04T10:18:49.440Z,70.36
2018-09-04T10:19:49.428Z,70.07
2018-09-04T10:20:49.408Z,70.65
2018-09-04T10:21:49.332Z,70.07
2018-09-04T10:22:49.361Z,70.84
2018-09-04T10:23:49.291Z,70.46
2018-09-04T10:24:49.270Z,70.65
2018-09-04T10:25:49.254Z,70.26
2018-09-04T10:26:49.230Z,70.01
2018-09-04T10:27:49.273Z,69.53
2018-09-04T10:28:49.206Z,70.20
2018-09-04T10:29:49.795Z,69.92
2018-09-04T10:30:49.150Z,70.40
2018-09-04T10:31:49.131Z,70.50
2018-09-04T10:32:49.185Z,69.33
2018-09-04T10:33:49.790Z,68.66
2018-09-04T10:34:49.071Z,69.82
2018-09-04T10:35:49.046Z,68.85
2018-09-04T10:36:49.794Z,68.56
2018-09-04T10:37:49.052Z,68.95
2018-09-04T10:38:49.848Z,68.95
2018-09-04T10:39:48.965Z,68.56
2018-09-04T10:40:48.945Z,68.37
2018-09-04T10:41:48.925Z,68.85
2018-09-04T10:42:48.907Z,68.95
2018-09-04T10:43:48.932Z,68.56
2018-09-04T10:44:48.867Z,68.27
2018-09-04T10:45:48.846Z,67.11
2018-09-04T10:46:48.828Z,66.17
2018-09-04T10:47:48.849Z,66.27
2018-09-04T10:48:48.784Z,65.88
2018-09-04T10:49:48.762Z,66.37
2018-09-04T10:50:48.790Z,66.27
2018-09-04T10:51:48.727Z,66.08
2018-09-04T10:52:48.701Z,65.43
2018-09-04T10:53:48.685Z,65.88
2018-09-04T10:54:48.675Z,65.69
2018-09-04T10:55:48.962Z,65.92
2018-09-04T10:56:48.634Z,65.92
2018-09-04T10:57:48.661Z,65.72
2018-09-04T10:58:48.589Z,65.14
2018-09-04T10:59:48.565Z,65.95
2018-09-04T11:00:48.868Z,65.37
2018-09-04T11:01:48.531Z,64.79
2018-09-04T11:02:48.504Z,64.98
2018-09-04T11:03:48.490Z,63.53
2018-09-04T11:04:49.303Z,63.72
2018-09-04T11:05:48.508Z,62.66
2018-09-04T11:06:48.425Z,62.85
2018-09-04T11:07:48.411Z,62.66
2018-09-04T11:08:48.388Z,63.37
2018-09-04T11:09:48.549Z,63.46
2018-09-04T11:10:48.856Z,62.59
2018-09-04T11:11:48.336Z,61.82
2018-09-04T11:12:49.304Z,62.10
2018-09-04T11:13:48.310Z,61.24
2018-09-04T11:14:48.278Z,59.52
2018-09-04T11:15:48.298Z,59.91
2018-09-04T11:16:48.357Z,59.81
2018-09-04T11:17:48.221Z,58.36
2018-09-04T11:18:48.202Z,59.23
2018-09-04T11:19:48.806Z,59.71
2018-09-04T11:20:48.203Z,60.46
2018-09-04T11:21:48.197Z,61.17
2018-09-04T11:22:48.174Z,60.65
2018-09-04T11:23:48.174Z,61.24
2018-09-04T11:24:48.092Z,61.24
2018-09-04T11:25:48.808Z,61.52
2018-09-04T11:26:48.119Z,61.04
2018-09-04T11:27:48.035Z,61.69
2018-09-04T11:28:48.015Z,61.52
2018-09-04T11:29:48.002Z,61.01
2018-09-04T11:30:48.042Z,61.21
2018-09-04T11:31:48.023Z,61.30
2018-09-04T11:32:47.945Z,61.11
2018-09-04T11:33:47.922Z,61.69
2018-09-04T11:34:47.906Z,62.27
2018-09-04T11:35:47.890Z,61.79
2018-09-04T11:36:47.913Z,62.43
2018-09-04T11:37:47.899Z,62.17
2018-09-04T11:38:47.826Z,62.37
2018-09-04T11:39:47.856Z,62.17
2018-09-04T11:40:47.862Z,62.17
2018-09-04T11:41:47.779Z,62.17
2018-09-04T11:42:48.319Z,61.88
2018-09-04T11:43:47.776Z,60.91
2018-09-04T11:44:47.709Z,61.11
2018-09-04T11:45:47.708Z,61.04
2018-09-04T11:46:47.679Z,61.04
2018-09-04T11:47:47.655Z,59.88
2018-09-04T11:48:47.680Z,59.71
2018-09-04T11:49:47.621Z,59.81
2018-09-04T11:50:47.596Z,59.61
2018-09-04T11:51:47.581Z,59.61
2018-09-04T11:52:47.559Z,59.91
2018-09-04T11:53:47.874Z,60.00
2018-09-04T11:54:47.524Z,59.81
2018-09-04T11:55:48.325Z,60.58
2018-09-04T11:56:47.481Z,61.00
2018-09-04T11:57:47.462Z,60.61
2018-09-04T11:58:47.496Z,59.26
2018-09-04T11:59:48.321Z,58.84
2018-09-04T12:00:47.409Z,58.84
2018-09-04T12:01:47.386Z,58.94
2018-09-04T12:02:47.371Z,59.78
2018-09-04T12:03:47.392Z,59.69
2018-09-04T12:04:47.383Z,60.07
2018-09-04T12:05:47.447Z,59.94
2018-09-04T12:06:47.388Z,61.01
2018-09-04T12:07:47.285Z,61.01
2018-09-04T12:08:47.260Z,61.01
2018-09-04T12:09:47.237Z,60.91
2018-09-04T12:10:47.255Z,61.21
2018-09-04T12:11:47.205Z,60.82
2018-09-04T12:12:47.265Z,61.30
2018-09-04T12:13:47.204Z,61.30
2018-09-04T12:14:47.138Z,58.62
2018-09-04T12:15:47.125Z,57.17
2018-09-04T12:16:47.101Z,57.75
2018-09-04T12:17:47.086Z,58.06
2018-09-04T12:18:47.109Z,59.23
2018-09-04T12:19:47.043Z,59.71
2018-09-04T12:20:47.108Z,57.58
2018-09-04T12:21:47.009Z,57.42
2018-09-04T12:22:46.987Z,59.94
2018-09-04T12:23:47.835Z,56.74
2018-09-04T12:24:46.968Z,56.47
2018-09-04T12:25:46.992Z,56.57
2018-09-04T12:26:46.913Z,56.57
2018-09-04T12:27:46.895Z,56.47
2018-09-04T12:28:47.835Z,56.21
2018-09-04T12:29:46.859Z,56.37
2018-09-04T12:30:46.891Z,56.37
2018-09-04T12:31:46.821Z,56.37
2018-09-04T12:32:46.805Z,56.57
2018-09-04T12:33:46.841Z,56.37
2018-09-04T12:34:46.769Z,56.47
2018-09-04T12:35:46.762Z,56.25
2018-09-04T12:36:47.331Z,56.45
2018-09-04T12:37:46.712Z,56.25
2018-09-04T12:38:46.746Z,56.74
2018-09-04T12:39:46.676Z,56.54
2018-09-04T12:40:46.655Z,56.54
2018-09-04T12:41:46.635Z,56.35
2018-09-04T12:42:46.619Z,56.09
2018-09-04T12:43:46.900Z,56.28
2018-09-04T12:44:46.584Z,55.89
2018-09-04T12:45:46.565Z,55.60
2018-09-04T12:46:46.553Z,55.79
2018-09-04T12:47:46.526Z,56.01
2018-09-04T12:48:46.554Z,56.28
2018-09-04T12:49:46.491Z,55.99
2018-09-04T12:50:46.475Z,55.69
2018-09-04T12:51:46.498Z,55.79